Terminal Aerodrome Forecast
Issued by NWS

Home | Current Version | Previous Version | Text Only | Print | Product List | Glossary On
Versions: 1 2 3 4 5 6 7 8 9 10 11 12 13 14 15 16 17 18 19 20 21 22 23 24 25 26 27 28 29 30 31 32 33 34 35 36 37 38
000
FTUS45 KGJT 252341
TAFEGE
TAFEGE
TAF
KEGE 252341Z 2600/2624 25005KT P6SM VCSH SCT060 BKN100
      TEMPO 2600/2603 VRB10G20KT -SHRA BKN060
     FM260300 08003KT P6SM BKN100
     FM261000 00000KT P6SM FEW020 BKN080
     FM261500 VRB03KT P6SM FEW040 BKN100
     FM261900 25010G18KT P6SM SCT070 BKN100
      AMD LTD TO CLD VIS AND WIND 2602/2613=

USA.gov is the U.S. government's official web portal to all federal, state and local government web resources and services.